Time;durP1;ratioP1;P1;durP2;ratioP2;P2;SDS_P1;SDS_P2;PMS_P1;PMS_P2;Temp;Humidity;BMP_temperature;BMP_pressure;BME280_temperature;BME280_humidity;BME280_pressure;Samples;Min_cycle;Max_cycle;Signal;HPM_P1;HPM_P2
2023/12/17 00:00:19;;;;;;;0.90;0.90;;;;;;;3.03;100.00;102497.13;5095126;28;20296;-81
2023/12/17 00:02:48;;;;;;;1.27;1.00;;;;;;;2.98;100.00;102498.38;5041654;28;20730;-80
2023/12/17 00:05:15;;;;;;;1.03;1.03;;;;;;;3.03;100.00;102501.34;5097195;28;20293;-80
2023/12/17 00:07:42;;;;;;;1.37;1.37;;;;;;;2.89;100.00;102502.75;5104046;28;20232;-80
2023/12/17 00:10:09;;;;;;;0.90;0.90;;;;;;;2.70;100.00;102477.25;5097401;28;20313;-81
2023/12/17 00:12:36;;;;;;;1.33;1.33;;;;;;;2.97;100.00;102501.69;5093960;28;20281;-80
2023/12/17 00:15:03;;;;;;;1.03;1.03;;;;;;;2.94;100.00;102511.69;5094113;28;20283;-80
2023/12/17 00:17:30;;;;;;;0.97;0.97;;;;;;;2.88;100.00;102503.50;5075715;28;20212;-81
2023/12/17 00:19:59;;;;;;;0.80;0.80;;;;;;;2.89;100.00;102507.88;5102360;28;20306;-79
2023/12/17 00:22:25;;;;;;;0.60;0.60;;;;;;;2.91;100.00;102506.31;5107689;28;20284;-80
2023/12/17 00:24:52;;;;;;;1.53;1.10;;;;;;;2.36;100.00;102404.34;5096612;28;20288;-80
2023/12/17 00:27:19;;;;;;;3.83;3.50;;;;;;;2.87;100.00;102504.25;5108769;28;20229;-79
2023/12/17 00:29:46;;;;;;;2.10;2.07;;;;;;;2.76;100.00;102515.28;5094319;28;20289;-79
2023/12/17 00:32:13;;;;;;;1.53;1.43;;;;;;;2.86;100.00;102515.28;5094563;28;20308;-80
2023/12/17 00:34:40;;;;;;;0.80;0.80;;;;;;;2.83;100.00;102512.47;5110785;28;20304;-80
2023/12/17 00:37:09;;;;;;;0.90;0.90;;;;;;;2.82;100.00;102508.09;5062476;28;20623;-81
2023/12/17 00:39:36;;;;;;;1.10;1.10;;;;;;;2.66;100.00;102517.81;5112511;28;20220;-81
2023/12/17 00:42:03;;;;;;;0.97;0.97;;;;;;;2.75;100.00;102508.34;5087678;28;20198;-80
2023/12/17 00:44:30;;;;;;;1.07;1.07;;;;;;;2.73;100.00;102509.88;5096112;28;20233;-80
2023/12/17 00:46:57;;;;;;;6.13;2.33;;;;;;;2.80;100.00;102504.50;5112478;28;20688;-80
2023/12/17 00:49:23;;;;;;;1.00;1.00;;;;;;;2.85;100.00;102506.69;5092998;28;20198;-81
2023/12/17 00:51:50;;;;;;;0.70;0.70;;;;;;;2.79;100.00;102512.97;5092710;28;20289;-81
2023/12/17 00:54:19;;;;;;;1.97;1.87;;;;;;;2.71;100.00;102512.31;5103408;28;20225;-80
2023/12/17 00:56:46;;;;;;;2.27;1.27;;;;;;;2.78;100.00;102506.06;5096825;28;20233;-76
2023/12/17 00:59:13;;;;;;;0.80;0.80;;;;;;;2.79;100.00;102511.31;5055066;28;20651;-80
2023/12/17 01:01:40;;;;;;;0.80;0.80;;;;;;;2.77;100.00;102514.50;5096425;28;20281;-80
2023/12/17 01:04:06;;;;;;;2.20;1.73;;;;;;;2.75;100.00;102510.91;5092233;28;20304;-80
2023/12/17 01:06:34;;;;;;;0.93;0.93;;;;;;;2.70;100.00;102500.28;5092584;28;20722;-81
2023/12/17 01:09:01;;;;;;;3.33;2.03;;;;;;;2.25;100.00;102415.31;5111555;28;20638;-80
2023/12/17 01:11:29;;;;;;;0.97;0.97;;;;;;;2.74;100.00;102486.06;5101700;28;20701;-81
2023/12/17 01:13:56;;;;;;;0.70;0.70;;;;;;;2.75;100.00;102482.72;5089360;28;20309;-80
2023/12/17 01:16:23;;;;;;;0.90;0.90;;;;;;;2.81;100.00;102503.75;5095919;28;20202;-80
2023/12/17 01:18:50;;;;;;;0.90;0.90;;;;;;;2.73;100.00;102497.09;5094574;28;20216;-80
2023/12/17 01:21:17;;;;;;;1.63;1.53;;;;;;;2.63;100.00;102503.09;5094840;28;20297;-81
2023/12/17 01:23:44;;;;;;;1.03;1.03;;;;;;;2.70;100.00;102510.53;5092754;28;20289;-81
2023/12/17 01:26:18;;;;;;;0.60;0.60;;;;;;;2.63;100.00;102490.28;5042706;28;20584;-80
2023/12/17 01:28:46;;;;;;;0.90;0.90;;;;;;;2.69;100.00;102510.38;5059033;28;20414;-80
2023/12/17 01:31:13;;;;;;;0.80;0.80;;;;;;;2.65;100.00;102513.44;5078244;28;20289;-80
2023/12/17 01:33:40;;;;;;;0.93;0.93;;;;;;;2.54;100.00;102497.16;5056281;28;20223;-82
2023/12/17 01:36:08;;;;;;;1.97;1.87;;;;;;;2.62;100.00;102510.63;5087369;28;20644;-81
2023/12/17 01:38:36;;;;;;;1.00;1.00;;;;;;;2.66;100.00;102520.38;5097924;28;20293;-82
2023/12/17 01:41:03;;;;;;;0.70;0.70;;;;;;;2.66;100.00;102517.81;5056066;28;20301;-81
2023/12/17 01:43:31;;;;;;;1.50;1.50;;;;;;;2.72;100.00;102518.34;5091515;28;20190;-81
2023/12/17 01:46:00;;;;;;;1.23;0.90;;;;;;;2.71;100.00;102527.66;5096586;28;20637;-81
2023/12/17 01:48:27;;;;;;;1.73;1.63;;;;;;;2.55;100.00;102523.69;5099128;28;20281;-81
2023/12/17 01:50:55;;;;;;;2.23;2.13;;;;;;;2.50;100.00;102524.19;5105160;28;20281;-81
2023/12/17 01:53:22;;;;;;;1.80;1.57;;;;;;;2.16;100.00;102450.38;5099260;28;20276;-81
2023/12/17 01:55:50;;;;;;;1.03;1.03;;;;;;;2.30;100.00;102475.50;5105445;28;20281;-82
2023/12/17 01:58:18;;;;;;;0.70;0.70;;;;;;;2.40;100.00;102502.78;5015837;28;20695;-81
2023/12/17 02:00:45;;;;;;;0.90;0.90;;;;;;;2.50;100.00;102513.94;5093436;28;20253;-79
2023/12/17 02:03:14;;;;;;;0.60;0.60;;;;;;;2.49;100.00;102514.72;5094400;28;20725;-81
2023/12/17 02:05:41;;;;;;;1.63;1.63;;;;;;;2.39;100.00;102503.56;5095901;28;20284;-81
2023/12/17 02:08:08;;;;;;;1.40;1.40;;;;;;;2.52;100.00;102511.53;5099818;28;20201;-81
2023/12/17 02:10:34;;;;;;;0.80;0.80;;;;;;;2.52;100.00;102513.19;5091363;28;20225;-79
2023/12/17 02:13:03;;;;;;;0.63;0.63;;;;;;;2.32;100.00;102471.38;5091005;28;20277;-80
2023/12/17 02:15:30;;;;;;;0.60;0.60;;;;;;;2.58;100.00;102508.56;5091418;28;20206;-81
2023/12/17 02:17:57;;;;;;;0.87;0.87;;;;;;;2.59;100.00;102506.16;5094494;28;20643;-80
2023/12/17 02:20:26;;;;;;;1.07;1.07;;;;;;;2.70;100.00;102504.50;5122687;28;20247;-80
2023/12/17 02:22:57;;;;;;;0.70;0.70;;;;;;;2.34;100.00;102461.31;5102930;28;20233;-81
2023/12/17 02:25:25;;;;;;;1.37;1.27;;;;;;;2.65;100.00;102505.78;5103265;28;20217;-80
2023/12/17 02:27:52;;;;;;;0.80;0.80;;;;;;;2.71;100.00;102506.31;5071973;28;20238;-80
2023/12/17 02:30:19;;;;;;;0.70;0.70;;;;;;;2.64;100.00;102515.09;5118923;28;20280;-80
2023/12/17 02:32:46;;;;;;;1.13;1.13;;;;;;;2.66;100.00;102512.69;5098525;28;20264;-79
2023/12/17 02:35:13;;;;;;;18.27;2.00;;;;;;;2.61;100.00;102512.28;5093916;28;20335;-80
2023/12/17 02:37:40;;;;;;;1.07;1.07;;;;;;;2.61;100.00;102503.72;5091865;28;20281;-80
2023/12/17 02:40:08;;;;;;;0.80;0.80;;;;;;;2.56;100.00;102484.50;5103211;28;20264;-79
2023/12/17 02:42:37;;;;;;;1.73;1.73;;;;;;;2.60;100.00;102501.94;5078185;28;20256;-79
2023/12/17 02:45:04;;;;;;;0.70;0.70;;;;;;;2.59;100.00;102505.25;5112112;28;20225;-78
2023/12/17 02:47:31;;;;;;;1.23;1.20;;;;;;;2.48;100.00;102502.69;5092744;28;20281;-79
2023/12/17 02:49:58;;;;;;;1.80;1.70;;;;;;;2.50;100.00;102513.03;5092031;28;20208;-78
2023/12/17 02:52:26;;;;;;;1.50;1.50;;;;;;;2.60;100.00;102499.38;5092799;28;20225;-79
2023/12/17 02:54:53;;;;;;;1.03;1.03;;;;;;;2.60;100.00;102497.72;5093133;28;20194;-78
2023/12/17 02:57:24;;;;;;;2.47;2.00;;;;;;;2.52;100.00;102485.91;5103450;28;20276;-78
2023/12/17 02:59:53;;;;;;;1.30;1.30;;;;;;;2.48;100.00;102477.06;5097428;28;20210;-79
2023/12/17 03:02:20;;;;;;;1.20;1.20;;;;;;;2.32;100.00;102473.09;5061903;28;20281;-79
2023/12/17 03:04:47;;;;;;;0.80;0.80;;;;;;;2.47;100.00;102490.63;5105334;28;20541;-78
2023/12/17 03:07:14;;;;;;;1.10;1.10;;;;;;;2.49;100.00;102484.00;5047504;28;20213;-79
2023/12/17 03:09:41;;;;;;;1.73;1.73;;;;;;;2.46;100.00;102491.38;5094086;28;20289;-78
2023/12/17 03:12:08;;;;;;;3.53;3.23;;;;;;;2.49;100.00;102473.75;5099353;28;20251;-78
2023/12/17 03:14:34;;;;;;;1.57;1.47;;;;;;;2.46;100.00;102482.84;5104544;28;20289;-77
2023/12/17 03:17:03;;;;;;;1.17;1.17;;;;;;;2.53;100.00;102474.00;5079626;28;20190;-79
2023/12/17 03:19:30;;;;;;;4.80;1.60;;;;;;;2.53;100.00;102476.56;5062743;28;20237;-78
2023/12/17 03:21:57;;;;;;;0.80;0.80;;;;;;;2.42;100.00;102461.19;5105988;28;20324;-78
2023/12/17 03:24:24;;;;;;;0.60;0.60;;;;;;;2.23;100.00;102450.13;5095729;28;20678;-78
2023/12/17 03:26:51;;;;;;;1.27;1.27;;;;;;;2.44;100.00;102469.91;5094711;28;20232;-78
2023/12/17 03:29:18;;;;;;;2.30;2.20;;;;;;;2.53;100.00;102479.13;5094086;28;20281;-78
2023/12/17 03:31:45;;;;;;;1.63;1.63;;;;;;;2.57;100.00;102488.88;5078999;28;20279;-78
2023/12/17 03:34:13;;;;;;;1.10;1.10;;;;;;;2.52;100.00;102487.56;5098499;28;20308;-79
2023/12/17 03:36:40;;;;;;;3.60;1.43;;;;;;;2.52;100.00;102497.81;5073828;28;20245;-79
2023/12/17 03:39:08;;;;;;;2.60;2.40;;;;;;;2.52;100.00;102492.69;5091216;28;20194;-80
2023/12/17 03:41:35;;;;;;;1.53;1.53;;;;;;;2.50;100.00;102490.88;5113730;28;20632;-79
2023/12/17 03:44:02;;;;;;;1.10;1.10;;;;;;;2.44;100.00;102492.03;5102761;28;20705;-79
2023/12/17 03:46:29;;;;;;;1.07;1.07;;;;;;;2.47;100.00;102489.72;5093844;28;20285;-79
2023/12/17 03:48:56;;;;;;;0.83;0.83;;;;;;;2.39;100.00;102494.19;5093634;28;20277;-80
2023/12/17 03:51:24;;;;;;;1.00;1.00;;;;;;;2.47;100.00;102487.16;5075182;28;20582;-80
2023/12/17 03:53:51;;;;;;;1.77;1.70;;;;;;;2.52;100.00;102492.69;5109896;28;20277;-80
2023/12/17 03:56:18;;;;;;;0.70;0.70;;;;;;;2.49;100.00;102484.00;5093468;28;20281;-80
2023/12/17 03:58:45;;;;;;;2.20;2.10;;;;;;;2.57;100.00;102486.31;5094227;28;20226;-80
2023/12/17 04:01:12;;;;;;;0.83;0.83;;;;;;;2.59;100.00;102485.66;5113144;28;20281;-80
2023/12/17 04:03:39;;;;;;;1.43;1.43;;;;;;;2.54;100.00;102486.03;5117175;28;20234;-80
2023/12/17 04:06:08;;;;;;;0.93;0.93;;;;;;;2.55;100.00;102481.06;5110202;28;20247;-80
2023/12/17 04:08:36;;;;;;;2.10;2.00;;;;;;;2.61;100.00;102488.34;5064186;28;20198;-80
2023/12/17 04:11:03;;;;;;;0.93;0.93;;;;;;;2.59;100.00;102487.34;5070097;28;20962;-80
2023/12/17 04:13:30;;;;;;;1.40;1.40;;;;;;;2.43;100.00;102462.06;5095403;28;20226;-79
2023/12/17 04:15:56;;;;;;;0.80;0.80;;;;;;;2.60;100.00;102489.13;5096284;28;20233;-79
2023/12/17 04:18:23;;;;;;;1.20;1.20;;;;;;;2.61;100.00;102483.22;5104876;28;20197;-78
2023/12/17 04:20:50;;;;;;;0.60;0.60;;;;;;;2.55;100.00;102473.38;5093060;28;20308;-80
2023/12/17 04:23:17;;;;;;;0.97;0.97;;;;;;;2.58;100.00;102494.13;5089374;28;20289;-78
2023/12/17 04:25:45;;;;;;;1.37;1.37;;;;;;;2.62;100.00;102485.03;5103210;28;20280;-78
2023/12/17 04:28:13;;;;;;;0.90;0.90;;;;;;;2.43;100.00;102473.22;5098040;28;20308;-78
2023/12/17 04:30:40;;;;;;;0.83;0.83;;;;;;;2.55;100.00;102498.06;5095683;28;20289;-79
2023/12/17 04:33:07;;;;;;;1.67;1.67;;;;;;;2.47;100.00;102500.88;5100649;28;20264;-78
2023/12/17 04:35:34;;;;;;;1.70;1.70;;;;;;;2.50;100.00;102497.66;5097848;28;20194;-78
2023/12/17 04:38:01;;;;;;;0.73;0.73;;;;;;;1.94;100.00;102400.66;5090068;28;20197;-78
2023/12/17 04:40:27;;;;;;;1.10;1.10;;;;;;;2.53;100.00;102500.53;5095901;28;20297;-80
2023/12/17 04:42:56;;;;;;;0.90;0.90;;;;;;;2.58;100.00;102506.91;5097201;28;20724;-78
2023/12/17 04:45:23;;;;;;;0.93;0.93;;;;;;;2.49;100.00;102504.47;5107597;28;20273;-80
2023/12/17 04:47:50;;;;;;;1.40;1.10;;;;;;;2.46;100.00;102498.19;5114120;28;20236;-79
2023/12/17 04:50:17;;;;;;;1.20;1.20;;;;;;;2.45;100.00;102497.31;5101698;28;20277;-80
2023/12/17 04:52:44;;;;;;;4.03;3.67;;;;;;;2.43;100.00;102505.59;5063149;28;20289;-79
2023/12/17 04:55:11;;;;;;;1.23;1.23;;;;;;;2.45;100.00;102504.09;5104767;28;20276;-79
2023/12/17 04:57:38;;;;;;;1.63;1.63;;;;;;;2.34;100.00;102492.00;5104381;28;20660;-78
2023/12/17 05:00:08;;;;;;;0.80;0.80;;;;;;;2.39;100.00;102495.88;5094222;28;20654;-78
2023/12/17 05:02:35;;;;;;;1.03;1.03;;;;;;;2.29;100.00;102473.69;5037078;28;20223;-79
2023/12/17 05:05:02;;;;;;;1.43;1.43;;;;;;;2.32;100.00;102493.56;5110920;28;20576;-77
2023/12/17 05:07:28;;;;;;;1.30;1.30;;;;;;;2.25;100.00;102489.53;5106311;28;20190;-80
2023/12/17 05:09:57;;;;;;;1.03;0.97;;;;;;;2.37;100.00;102487.16;5099063;28;20282;-79
2023/12/17 05:12:24;;;;;;;3.03;2.83;;;;;;;2.36;100.00;102491.38;5097818;28;20202;-78
2023/12/17 05:14:51;;;;;;;0.70;0.70;;;;;;;2.36;100.00;102481.13;5083518;28;20289;-78
2023/12/17 05:17:19;;;;;;;0.80;0.80;;;;;;;2.40;100.00;102482.28;5105101;28;20281;-78
2023/12/17 05:19:46;;;;;;;1.37;1.37;;;;;;;2.41;100.00;102478.97;5106093;28;20622;-78
2023/12/17 05:22:13;;;;;;;1.93;1.83;;;;;;;2.43;100.00;102483.44;5104283;28;20749;-77
2023/12/17 05:24:40;;;;;;;1.20;1.20;;;;;;;2.37;100.00;102484.59;5098511;28;20229;-77
2023/12/17 05:27:07;;;;;;;1.17;1.17;;;;;;;2.44;100.00;102480.13;5102003;28;20219;-79
2023/12/17 05:29:34;;;;;;;2.63;2.47;;;;;;;2.37;100.00;102482.94;5107308;28;20737;-78
2023/12/17 05:32:01;;;;;;;1.10;1.10;;;;;;;2.39;100.00;102486.50;5034354;28;20293;-79
2023/12/17 05:34:29;;;;;;;0.80;0.80;;;;;;;2.28;100.00;102465.91;5090894;28;20202;-78
2023/12/17 05:36:56;;;;;;;1.30;1.30;;;;;;;2.44;100.00;102500.63;5090043;28;20281;-80
2023/12/17 05:39:23;;;;;;;2.97;1.93;;;;;;;2.40;100.00;102490.88;5042539;28;20201;-81
2023/12/17 05:41:50;;;;;;;2.80;2.10;;;;;;;2.24;100.00;102467.31;5090841;28;20314;-81
2023/12/17 05:44:17;;;;;;;0.77;0.77;;;;;;;2.42;100.00;102489.38;5093485;28;20292;-80
2023/12/17 05:46:44;;;;;;;1.10;1.10;;;;;;;2.41;100.00;102497.81;5090717;28;20255;-80
2023/12/17 05:49:11;;;;;;;0.67;0.67;;;;;;;2.39;100.00;102496.75;5075142;28;20289;-79
2023/12/17 05:51:43;;;;;;;0.90;0.90;;;;;;;2.47;100.00;102490.63;5110593;28;20201;-79
2023/12/17 05:54:11;;;;;;;1.27;0.97;;;;;;;2.58;100.00;102503.44;5104919;28;20237;-79
2023/12/17 05:56:42;;;;;;;1.20;1.10;;;;;;;2.52;100.00;102496.16;5091609;28;20273;-81
2023/12/17 05:59:09;;;;;;;0.90;0.90;;;;;;;2.55;100.00;102503.19;5094973;28;20674;-81
2023/12/17 06:01:36;;;;;;;1.27;1.27;;;;;;;2.49;100.00;102509.59;5074708;28;20221;-81
2023/12/17 06:04:03;;;;;;;0.50;0.50;;;;;;;2.41;100.00;102499.47;5078323;28;20285;-78
2023/12/17 06:06:30;;;;;;;1.83;1.73;;;;;;;2.42;100.00;102511.50;5044269;28;20285;-77
2023/12/17 06:08:59;;;;;;;1.10;1.10;;;;;;;2.53;100.00;102509.88;5087605;28;20726;-78
2023/12/17 06:11:26;;;;;;;0.83;0.83;;;;;;;2.53;100.00;102517.53;5090729;28;20285;-77
2023/12/17 06:13:53;;;;;;;0.67;0.67;;;;;;;2.50;100.00;102513.94;5095111;28;20284;-79
2023/12/17 06:16:20;;;;;;;0.80;0.80;;;;;;;2.57;100.00;102522.16;5101367;28;20639;-77
2023/12/17 06:18:47;;;;;;;1.10;1.10;;;;;;;2.47;100.00;102511.13;5090695;28;20645;-78
2023/12/17 06:21:22;;;;;;;1.13;1.03;;;;;;;2.58;100.00;102523.94;5100803;28;20311;-77
2023/12/17 06:23:50;;;;;;;0.87;0.87;;;;;;;2.60;100.00;102530.09;5078069;28;20200;-75
2023/12/17 06:26:20;;;;;;;0.87;0.87;;;;;;;2.37;100.00;102508.53;5089223;28;20297;-73
2023/12/17 06:28:47;;;;;;;8.13;2.50;;;;;;;2.74;100.00;102516.81;5090258;28;20658;-73
2023/12/17 06:31:14;;;;;;;1.40;1.40;;;;;;;2.76;100.00;102510.16;5054972;28;20296;-71
2023/12/17 06:33:41;;;;;;;0.80;0.80;;;;;;;2.58;100.00;102529.06;5095479;28;20672;-70
2023/12/17 06:36:09;;;;;;;2.10;1.20;;;;;;;2.82;100.00;102523.47;5091176;28;20277;-70
2023/12/17 06:38:36;;;;;;;0.70;0.70;;;;;;;2.54;100.00;102516.75;5091663;28;20298;-72
2023/12/17 06:41:03;;;;;;;1.43;1.43;;;;;;;2.67;100.00;102535.91;5095783;28;20352;-72
2023/12/17 06:43:31;;;;;;;1.00;1.00;;;;;;;2.65;100.00;102541.63;5096135;28;20732;-70
2023/12/17 06:45:58;;;;;;;6.73;6.37;;;;;;;3.07;100.00;102535.00;5094165;28;20208;-73
2023/12/17 06:48:25;;;;;;;3.50;1.57;;;;;;;3.03;100.00;102542.34;5069024;28;20197;-80
2023/12/17 06:50:52;;;;;;;2.57;1.43;;;;;;;2.76;100.00;102522.94;5105192;28;20732;-79
2023/12/17 06:53:19;;;;;;;1.10;1.10;;;;;;;2.99;100.00;102551.44;5096308;28;20285;-78
2023/12/17 06:55:46;;;;;;;1.80;1.70;;;;;;;3.04;100.00;102555.25;5109568;28;20684;-82
2023/12/17 06:58:13;;;;;;;1.93;1.90;;;;;;;3.00;100.00;102560.91;5115245;28;20276;-79
2023/12/17 07:00:41;;;;;;;1.17;1.17;;;;;;;2.98;100.00;102558.22;5097675;28;20191;-80
2023/12/17 07:03:08;;;;;;;1.47;1.47;;;;;;;2.96;100.00;102559.75;5094647;28;20236;-78
2023/12/17 07:05:35;;;;;;;2.83;2.40;;;;;;;2.90;100.00;102551.53;5090141;28;20368;-78
2023/12/17 07:08:02;;;;;;;0.97;0.97;;;;;;;2.74;100.00;102527.06;5089490;28;20233;-78
2023/12/17 07:10:29;;;;;;;1.43;1.43;;;;;;;2.90;100.00;102550.63;5085834;28;20281;-79
2023/12/17 07:12:56;;;;;;;1.80;1.70;;;;;;;2.90;100.00;102542.94;5100822;28;20285;-80
2023/12/17 07:15:23;;;;;;;0.87;0.87;;;;;;;2.97;100.00;102552.94;5089907;28;20297;-82
2023/12/17 07:17:52;;;;;;;1.30;1.30;;;;;;;2.85;100.00;102536.56;5087582;28;20212;-79
2023/12/17 07:20:19;;;;;;;1.93;1.93;;;;;;;3.03;100.00;102556.06;5087572;28;20203;-84
2023/12/17 07:22:47;;;;;;;1.20;1.10;;;;;;;3.09;100.00;102551.44;5082071;28;20230;-84
2023/12/17 07:25:14;;;;;;;1.03;1.03;;;;;;;3.06;100.00;102557.97;5090817;28;20218;-83
2023/12/17 07:27:41;;;;;;;1.43;1.43;;;;;;;3.19;100.00;102554.00;5088721;28;20293;-80
2023/12/17 07:30:09;;;;;;;0.60;0.60;;;;;;;3.21;100.00;102560.13;5065026;28;20688;-80
2023/12/17 07:32:37;;;;;;;1.10;1.10;;;;;;;3.10;100.00;102558.38;5049547;28;20309;-79
2023/12/17 07:35:07;;;;;;;5.10;3.53;;;;;;;3.20;100.00;102522.47;5103682;28;20192;-80
2023/12/17 07:37:34;;;;;;;1.53;1.53;;;;;;;3.26;100.00;102558.88;5054354;28;20190;-77
2023/12/17 07:40:01;;;;;;;1.27;1.27;;;;;;;2.85;100.00;102457.13;5082129;28;20282;-76
2023/12/17 07:42:28;;;;;;;1.50;1.40;;;;;;;3.20;100.00;102527.59;5049066;28;20900;-77
2023/12/17 07:44:55;;;;;;;1.53;1.53;;;;;;;3.21;100.00;102529.38;5084520;28;20234;-78
2023/12/17 07:47:22;;;;;;;0.70;0.70;;;;;;;3.22;100.00;102526.06;5087740;28;20564;-79
2023/12/17 07:49:49;;;;;;;1.10;1.10;;;;;;;3.28;100.00;102544.50;5086440;28;20199;-78
2023/12/17 07:52:17;;;;;;;1.03;1.03;;;;;;;3.46;100.00;102537.47;5095444;28;20667;-75
2023/12/17 07:54:44;;;;;;;1.30;1.30;;;;;;;3.54;100.00;102540.63;5086107;28;20207;-80
2023/12/17 07:57:11;;;;;;;1.20;1.20;;;;;;;3.51;100.00;102520.75;5089582;28;20274;-78
2023/12/17 07:59:38;;;;;;;2.63;1.73;;;;;;;3.69;100.00;102540.22;5056728;28;20234;-78
2023/12/17 08:02:05;;;;;;;1.93;1.83;;;;;;;3.64;100.00;102536.38;5086389;28;20301;-81
2023/12/17 08:04:34;;;;;;;1.13;1.03;;;;;;;3.65;100.00;102534.72;5085938;28;20316;-79
2023/12/17 08:07:01;;;;;;;1.60;1.53;;;;;;;3.71;100.00;102532.69;5089664;28;20198;-79
2023/12/17 08:09:29;;;;;;;1.40;1.40;;;;;;;3.73;100.00;102543.94;5087193;28;20269;-78
2023/12/17 08:11:56;;;;;;;0.70;0.70;;;;;;;3.70;100.00;102543.69;5090373;28;20202;-78
2023/12/17 08:14:23;;;;;;;1.33;1.23;;;;;;;3.79;100.00;102544.44;5077176;28;20248;-78
2023/12/17 08:16:50;;;;;;;16.43;1.40;;;;;;;3.90;100.00;102546.19;5092457;28;20289;-78
2023/12/17 08:19:17;;;;;;;0.70;0.70;;;;;;;3.93;100.00;102538.75;5084858;28;20870;-77
2023/12/17 08:21:44;;;;;;;0.80;0.80;;;;;;;3.67;100.00;102515.22;5092346;28;20233;-77
2023/12/17 08:24:11;;;;;;;1.30;1.30;;;;;;;3.74;100.00;102530.34;5094377;28;20721;-77
2023/12/17 08:26:39;;;;;;;1.03;1.03;;;;;;;3.91;100.00;102517.22;5092357;28;20281;-77
2023/12/17 08:29:06;;;;;;;1.23;1.23;;;;;;;4.00;100.00;102536.81;5086069;28;20241;-79
2023/12/17 08:31:35;;;;;;;0.70;0.70;;;;;;;3.99;100.00;102531.56;5094558;28;20288;-78
2023/12/17 08:34:02;;;;;;;1.30;1.30;;;;;;;5.05;100.00;102532.25;5087868;28;20257;-77
2023/12/17 08:36:28;;;;;;;2.07;1.87;;;;;;;4.58;100.00;102535.38;5105040;28;20202;-78
2023/12/17 08:38:55;;;;;;;0.50;0.50;;;;;;;4.27;100.00;102530.41;5089577;28;20234;-78
2023/12/17 08:41:22;;;;;;;0.80;0.80;;;;;;;4.13;100.00;102523.28;5048970;28;20209;-79
2023/12/17 08:43:51;;;;;;;1.20;1.20;;;;;;;4.13;100.00;102528.44;5078222;28;20314;-78
2023/12/17 08:46:18;;;;;;;1.30;1.30;;;;;;;4.20;100.00;102538.41;5083807;28;20230;-78
2023/12/17 08:48:45;;;;;;;2.23;2.13;;;;;;;4.22;100.00;102538.50;5072709;28;20297;-77
2023/12/17 08:51:12;;;;;;;2.33;2.23;;;;;;;4.14;100.00;102526.75;5091794;28;20675;-78
2023/12/17 08:53:41;;;;;;;2.57;2.37;;;;;;;4.16;100.00;102533.81;5092111;28;20206;-77
2023/12/17 08:56:09;;;;;;;1.53;1.43;;;;;;;4.25;100.00;102523.34;5091781;28;20202;-77
2023/12/17 08:58:36;;;;;;;3.00;2.70;;;;;;;4.01;100.00;102478.66;5061041;28;20276;-78
2023/12/17 09:01:05;;;;;;;2.13;2.03;;;;;;;4.34;100.00;102518.94;5085828;28;20291;-79
2023/12/17 09:03:32;;;;;;;0.83;0.83;;;;;;;4.46;100.00;102520.81;5082136;28;20309;-78
2023/12/17 09:06:00;;;;;;;0.60;0.60;;;;;;;4.37;100.00;102498.66;5092174;28;20293;-78
2023/12/17 09:08:27;;;;;;;2.63;1.30;;;;;;;4.47;100.00;102507.19;5056424;28;20206;-78
2023/12/17 09:10:54;;;;;;;0.70;0.70;;;;;;;4.28;100.00;102437.16;5091724;28;20289;-78
2023/12/17 09:13:22;;;;;;;1.17;1.17;;;;;;;4.50;100.00;102497.16;5088498;28;20233;-77
2023/12/17 09:15:49;;;;;;;1.47;1.47;;;;;;;4.66;100.00;102468.41;5083934;28;20206;-76
2023/12/17 09:18:18;;;;;;;3.70;1.67;;;;;;;4.74;100.00;102461.28;5091722;28;20292;-77
2023/12/17 09:20:45;;;;;;;1.10;1.10;;;;;;;4.65;100.00;102460.56;5091512;28;20665;-79
2023/12/17 09:23:12;;;;;;;1.00;1.00;;;;;;;4.72;100.00;102458.59;5091105;28;20232;-78
2023/12/17 09:25:39;;;;;;;0.60;0.60;;;;;;;4.93;100.00;102474.75;5072967;28;20285;-78
2023/12/17 09:28:06;;;;;;;0.67;0.60;;;;;;;4.99;100.00;102464.94;5091206;28;20285;-78
2023/12/17 09:30:33;;;;;;;1.00;1.00;;;;;;;4.42;100.00;102374.94;5086070;28;20203;-79
2023/12/17 09:33:00;;;;;;;1.07;1.07;;;;;;;4.92;100.00;102460.97;5082184;28;20668;-77
2023/12/17 09:35:28;;;;;;;0.70;0.70;;;;;;;5.17;100.00;102466.31;5090872;28;20697;-78
2023/12/17 09:37:55;;;;;;;1.10;1.10;;;;;;;4.78;100.00;102440.19;5091079;28;20285;-77
2023/12/17 09:40:22;;;;;;;2.27;2.17;;;;;;;5.04;100.00;102468.72;5087343;28;20284;-77
2023/12/17 09:42:52;;;;;;;0.80;0.80;;;;;;;4.98;100.00;102442.56;5083435;28;20314;-78
2023/12/17 09:45:19;;;;;;;2.40;2.30;;;;;;;5.17;100.00;102435.47;5091201;28;20202;-78
2023/12/17 09:47:46;;;;;;;1.70;1.60;;;;;;;5.53;100.00;102436.38;5066528;28;20332;-77
2023/12/17 09:50:13;;;;;;;0.80;0.80;;;;;;;5.48;100.00;102444.66;5084397;28;20206;-77
2023/12/17 09:52:42;;;;;;;1.37;1.37;;;;;;;5.39;100.00;102456.81;5089747;28;20266;-78
2023/12/17 09:55:11;;;;;;;8.60;2.20;;;;;;;5.43;100.00;102443.41;5064194;28;20256;-77
2023/12/17 09:57:38;;;;;;;0.93;0.93;;;;;;;5.24;100.00;102427.41;5093598;28;20278;-78
2023/12/17 10:00:09;;;;;;;0.83;0.83;;;;;;;5.64;100.00;102456.03;5081157;28;20585;-79
2023/12/17 10:02:37;;;;;;;0.60;0.60;;;;;;;5.64;100.00;102445.72;5082991;28;20585;-78
2023/12/17 10:05:04;;;;;;;1.20;1.20;;;;;;;5.63;100.00;102446.53;5090220;28;20205;-78
2023/12/17 10:07:31;;;;;;;0.80;0.80;;;;;;;5.66;100.00;102436.47;5055165;28;20776;-78
2023/12/17 10:09:59;;;;;;;0.97;0.97;;;;;;;5.45;100.00;102407.50;5089235;28;20202;-77
2023/12/17 10:12:27;;;;;;;1.03;1.03;;;;;;;5.59;100.00;102429.09;5085014;28;20194;-78
2023/12/17 10:14:54;;;;;;;1.43;1.33;;;;;;;5.28;100.00;102388.25;5090063;28;20646;-77
2023/12/17 10:17:21;;;;;;;0.80;0.80;;;;;;;5.53;100.00;102400.34;5090501;28;20277;-78
2023/12/17 10:19:51;;;;;;;1.37;1.37;;;;;;;5.87;100.00;102430.31;5080233;28;20301;-78
2023/12/17 10:22:19;;;;;;;0.97;0.97;;;;;;;5.86;100.00;102428.50;5090109;28;20597;-79
2023/12/17 10:24:47;;;;;;;1.53;1.43;;;;;;;6.07;100.00;102430.03;5087340;28;20655;-80
2023/12/17 10:27:18;;;;;;;1.33;1.33;;;;;;;6.25;100.00;102431.31;5080636;28;20277;-79
2023/12/17 10:29:49;;;;;;;1.40;1.40;;;;;;;6.18;100.00;102395.63;5087071;28;20198;-79
2023/12/17 10:32:23;;;;;;;1.67;1.57;;;;;;;6.43;100.00;102418.81;5070435;28;20630;-79
2023/12/17 10:34:51;;;;;;;1.10;1.10;;;;;;;6.26;100.00;102396.16;5086817;28;20194;-79
2023/12/17 10:37:20;;;;;;;3.23;3.00;;;;;;;5.93;100.00;102399.84;5090518;28;20575;-80
2023/12/17 10:39:49;;;;;;;0.97;0.97;;;;;;;6.06;100.00;102402.50;5090954;28;20597;-78
2023/12/17 10:42:18;;;;;;;0.60;0.60;;;;;;;6.21;100.00;102400.09;5090200;28;20213;-79
2023/12/17 10:44:47;;;;;;;1.00;1.00;;;;;;;6.26;100.00;102411.59;5090625;28;20285;-80
2023/12/17 10:47:16;;;;;;;1.00;1.00;;;;;;;6.23;100.00;102411.41;5090427;28;20202;-77
2023/12/17 10:49:44;;;;;;;3.53;2.23;;;;;;;5.91;100.00;102414.28;5071745;28;20241;-75
2023/12/17 10:52:12;;;;;;;0.80;0.80;;;;;;;5.76;100.00;102416.63;5071014;28;20212;-77
2023/12/17 10:54:40;;;;;;;2.43;2.30;;;;;;;5.73;100.00;102411.28;5090621;28;20202;-77
2023/12/17 10:57:12;;;;;;;1.20;1.20;;;;;;;5.83;100.00;102407.66;5090400;28;20570;-77
2023/12/17 10:59:44;;;;;;;1.10;1.03;;;;;;;5.85;100.00;102411.25;5090169;28;20228;-77
2023/12/17 11:02:15;;;;;;;0.87;0.87;;;;;;;5.80;100.00;102402.31;5089703;28;20194;-77
2023/12/17 11:04:45;;;;;;;1.00;1.00;;;;;;;5.97;100.00;102399.28;5090359;28;20667;-77
2023/12/17 11:07:17;;;;;;;1.40;1.30;;;;;;;5.99;100.00;102395.13;5090010;28;20228;-78
2023/12/17 11:09:44;;;;;;;1.10;1.10;;;;;;;5.72;100.00;102354.53;5090071;28;20207;-76
2023/12/17 11:12:12;;;;;;;0.90;0.90;;;;;;;6.05;100.00;102379.22;5075735;28;20694;-77
2023/12/17 11:14:42;;;;;;;1.03;1.03;;;;;;;5.48;100.00;102292.84;5090561;28;20236;-80
2023/12/17 11:17:12;;;;;;;0.70;0.70;;;;;;;6.03;100.00;102385.94;5091183;28;20298;-76
2023/12/17 11:19:53;;;;;;;2.67;1.77;;;;;;;6.06;100.00;102391.31;5090016;28;20259;-76
2023/12/17 11:22:21;;;;;;;1.00;1.00;;;;;;;5.82;100.00;102356.97;5080073;28;20278;-76
2023/12/17 11:24:48;;;;;;;1.00;1.00;;;;;;;5.97;100.00;102371.84;5057616;28;20210;-78